sensor_id;sensor_type;location;lat;lon;timestamp;temperature;humidity
44069;DHT22;29738;51.234;5.484;2023-07-22T02:14:12;14.40;99.90
44069;DHT22;29738;51.234;5.484;2023-07-22T02:16:38;14.70;99.90
44069;DHT22;29738;51.234;5.484;2023-07-22T02:19:04;14.40;99.90
44069;DHT22;29738;51.234;5.484;2023-07-22T02:21:29;14.30;99.90
44069;DHT22;29738;51.234;5.484;2023-07-22T02:23:55;14.20;99.90
44069;DHT22;29738;51.234;5.484;2023-07-22T02:26:20;14.30;99.90
44069;DHT22;29738;51.234;5.484;2023-07-22T02:28:46;14.50;99.90
44069;DHT22;29738;51.234;5.484;2023-07-22T02:31:12;14.40;99.90
44069;DHT22;29738;51.234;5.484;2023-07-22T02:33:38;14.30;99.90
44069;DHT22;29738;51.234;5.484;2023-07-22T02:36:03;14.20;99.90
44069;DHT22;29738;51.234;5.484;2023-07-22T02:38:29;14.00;99.90
44069;DHT22;29738;51.234;5.484;2023-07-22T02:40:55;14.10;99.90
44069;DHT22;29738;51.234;5.484;2023-07-22T02:43:26;14.10;99.90
44069;DHT22;29738;51.234;5.484;2023-07-22T02:45:52;14.00;99.90
44069;DHT22;29738;51.234;5.484;2023-07-22T02:48:18;14.10;99.90
44069;DHT22;29738;51.234;5.484;2023-07-22T02:50:44;14.20;99.90
44069;DHT22;29738;51.234;5.484;2023-07-22T02:53:11;14.20;99.90
44069;DHT22;29738;51.234;5.484;2023-07-22T02:55:38;14.20;99.90
44069;DHT22;29738;51.234;5.484;2023-07-22T02:58:04;14.30;99.90
44069;DHT22;29738;51.234;5.484;2023-07-22T03:00:37;14.40;99.90
44069;DHT22;29738;51.234;5.484;2023-07-22T03:03:05;14.50;99.90
44069;DHT22;29738;51.234;5.484;2023-07-22T03:05:31;14.30;99.90
44069;DHT22;29738;51.234;5.484;2023-07-22T03:07:58;14.40;99.90
44069;DHT22;29738;51.234;5.484;2023-07-22T03:10:27;14.30;99.90
44069;DHT22;29738;51.234;5.484;2023-07-22T03:12:54;14.30;99.90
44069;DHT22;29738;51.234;5.484;2023-07-22T03:15:23;14.30;99.90
44069;DHT22;29738;51.234;5.484;2023-07-22T05:32:51;15.80;99.90
44069;DHT22;29738;51.234;5.484;2023-07-22T05:35:17;15.70;99.90
44069;DHT22;29738;51.234;5.484;2023-07-22T05:37:42;15.70;99.90
44069;DHT22;29738;51.234;5.484;2023-07-22T05:40:08;15.80;99.90
44069;DHT22;29738;51.234;5.484;2023-07-22T05:42:35;15.80;99.90
44069;DHT22;29738;51.234;5.484;2023-07-22T05:45:01;15.90;99.90
44069;DHT22;29738;51.234;5.484;2023-07-22T05:47:27;16.00;99.90
44069;DHT22;29738;51.234;5.484;2023-07-22T05:49:53;16.00;99.90
44069;DHT22;29738;51.234;5.484;2023-07-22T05:52:19;15.90;99.90
44069;DHT22;29738;51.234;5.484;2023-07-22T05:54:44;15.80;99.90
44069;DHT22;29738;51.234;5.484;2023-07-22T05:57:10;15.70;99.90
44069;DHT22;29738;51.234;5.484;2023-07-22T05:59:35;15.90;99.90
44069;DHT22;29738;51.234;5.484;2023-07-22T06:02:02;16.00;99.90
44069;DHT22;29738;51.234;5.484;2023-07-22T06:04:28;15.80;99.90
44069;DHT22;29738;51.234;5.484;2023-07-22T06:06:54;15.80;99.90
44069;DHT22;29738;51.234;5.484;2023-07-22T06:09:19;15.90;99.90
44069;DHT22;29738;51.234;5.484;2023-07-22T06:11:46;16.20;99.90
44069;DHT22;29738;51.234;5.484;2023-07-22T06:14:12;16.40;99.90
44069;DHT22;29738;51.234;5.484;2023-07-22T06:16:37;16.40;99.90
44069;DHT22;29738;51.234;5.484;2023-07-22T06:19:03;16.40;99.90
44069;DHT22;29738;51.234;5.484;2023-07-22T06:21:29;16.50;99.90
44069;DHT22;29738;51.234;5.484;2023-07-22T06:23:54;16.30;99.90
44069;DHT22;29738;51.234;5.484;2023-07-22T06:26:20;16.40;99.90
44069;DHT22;29738;51.234;5.484;2023-07-22T06:28:46;16.60;99.90
44069;DHT22;29738;51.234;5.484;2023-07-22T06:31:12;16.80;99.90
44069;DHT22;29738;51.234;5.484;2023-07-22T06:33:37;16.70;99.90
44069;DHT22;29738;51.234;5.484;2023-07-22T06:36:03;16.70;99.90
44069;DHT22;29738;51.234;5.484;2023-07-22T06:38:29;16.70;99.90
44069;DHT22;29738;51.234;5.484;2023-07-22T06:40:55;16.80;99.90
44069;DHT22;29738;51.234;5.484;2023-07-22T06:43:20;16.90;99.90
44069;DHT22;29738;51.234;5.484;2023-07-22T06:45:47;16.70;99.90
44069;DHT22;29738;51.234;5.484;2023-07-22T06:48:13;16.80;99.90
44069;DHT22;29738;51.234;5.484;2023-07-22T06:50:38;17.00;99.90
44069;DHT22;29738;51.234;5.484;2023-07-22T06:53:04;16.80;99.90
44069;DHT22;29738;51.234;5.484;2023-07-22T06:55:29;16.90;99.90
44069;DHT22;29738;51.234;5.484;2023-07-22T06:57:56;17.20;99.90
44069;DHT22;29738;51.234;5.484;2023-07-22T07:00:21;17.20;99.90
44069;DHT22;29738;51.234;5.484;2023-07-22T07:02:47;17.00;99.90
44069;DHT22;29738;51.234;5.484;2023-07-22T07:05:13;17.00;99.90
44069;DHT22;29738;51.234;5.484;2023-07-22T07:07:38;17.10;99.90
44069;DHT22;29738;51.234;5.484;2023-07-22T07:10:05;17.20;99.90
44069;DHT22;29738;51.234;5.484;2023-07-22T07:12:31;17.20;99.90
44069;DHT22;29738;51.234;5.484;2023-07-22T07:14:57;17.60;99.90
44069;DHT22;29738;51.234;5.484;2023-07-22T07:17:23;17.40;99.90
44069;DHT22;29738;51.234;5.484;2023-07-22T07:19:48;17.20;99.90
44069;DHT22;29738;51.234;5.484;2023-07-22T07:22:14;17.20;99.90
44069;DHT22;29738;51.234;5.484;2023-07-22T07:24:40;17.20;99.90
44069;DHT22;29738;51.234;5.484;2023-07-22T07:27:06;17.50;99.90
44069;DHT22;29738;51.234;5.484;2023-07-22T07:29:33;17.50;99.90
44069;DHT22;29738;51.234;5.484;2023-07-22T07:31:59;17.30;99.90
44069;DHT22;29738;51.234;5.484;2023-07-22T07:34:25;17.40;99.90
44069;DHT22;29738;51.234;5.484;2023-07-22T07:36:50;17.40;99.90
44069;DHT22;29738;51.234;5.484;2023-07-22T07:39:16;17.50;99.90
44069;DHT22;29738;51.234;5.484;2023-07-22T07:41:42;17.30;99.90
44069;DHT22;29738;51.234;5.484;2023-07-22T07:44:08;17.40;99.90
44069;DHT22;29738;51.234;5.484;2023-07-22T07:46:33;17.70;99.90
44069;DHT22;29738;51.234;5.484;2023-07-22T07:48:59;17.90;99.90
44069;DHT22;29738;51.234;5.484;2023-07-22T07:51:26;18.20;99.90
44069;DHT22;29738;51.234;5.484;2023-07-22T07:53:52;18.40;99.90
44069;DHT22;29738;51.234;5.484;2023-07-22T07:56:18;18.30;99.90
44069;DHT22;29738;51.234;5.484;2023-07-22T07:58:45;18.40;99.90
44069;DHT22;29738;51.234;5.484;2023-07-22T08:01:10;18.50;99.90
44069;DHT22;29738;51.234;5.484;2023-07-22T08:03:37;18.50;99.90
44069;DHT22;29738;51.234;5.484;2023-07-22T08:06:02;18.40;99.90
44069;DHT22;29738;51.234;5.484;2023-07-22T08:08:28;18.30;99.90
44069;DHT22;29738;51.234;5.484;2023-07-22T08:13:28;18.30;99.90
44069;DHT22;29738;51.234;5.484;2023-07-22T08:15:56;18.40;99.90
44069;DHT22;29738;51.234;5.484;2023-07-22T08:18:22;18.60;99.90
44069;DHT22;29738;51.234;5.484;2023-07-22T08:20:49;18.60;99.90
44069;DHT22;29738;51.234;5.484;2023-07-22T08:23:15;18.80;99.90
44069;DHT22;29738;51.234;5.484;2023-07-22T08:25:40;18.80;99.90
44069;DHT22;29738;51.234;5.484;2023-07-22T08:28:08;18.50;99.90
44069;DHT22;29738;51.234;5.484;2023-07-22T08:30:34;18.80;99.90
44069;DHT22;29738;51.234;5.484;2023-07-22T08:33:00;19.20;99.90
44069;DHT22;29738;51.234;5.484;2023-07-22T08:35:26;19.20;99.90
44069;DHT22;29738;51.234;5.484;2023-07-22T08:37:52;19.50;99.90
44069;DHT22;29738;51.234;5.484;2023-07-22T08:40:19;19.20;99.90
44069;DHT22;29738;51.234;5.484;2023-07-22T08:42:45;19.20;99.90
44069;DHT22;29738;51.234;5.484;2023-07-22T08:45:11;19.30;99.90
44069;DHT22;29738;51.234;5.484;2023-07-22T08:47:55;19.10;99.90
44069;DHT22;29738;51.234;5.484;2023-07-22T08:50:23;18.90;99.90
44069;DHT22;29738;51.234;5.484;2023-07-22T08:52:51;19.00;99.90
44069;DHT22;29738;51.234;5.484;2023-07-22T08:55:17;19.00;99.90
44069;DHT22;29738;51.234;5.484;2023-07-22T08:57:43;18.90;99.90
44069;DHT22;29738;51.234;5.484;2023-07-22T09:00:08;18.90;99.90
44069;DHT22;29738;51.234;5.484;2023-07-22T09:02:37;19.00;99.90
44069;DHT22;29738;51.234;5.484;2023-07-22T09:05:03;19.00;99.90
44069;DHT22;29738;51.234;5.484;2023-07-22T09:07:28;19.00;99.90
44069;DHT22;29738;51.234;5.484;2023-07-22T09:09:56;19.30;99.90
44069;DHT22;29738;51.234;5.484;2023-07-22T10:06:37;20.70;99.90
44069;DHT22;29738;51.234;5.484;2023-07-22T10:09:04;21.10;99.90
44069;DHT22;29738;51.234;5.484;2023-07-22T10:11:34;21.00;99.90
44069;DHT22;29738;51.234;5.484;2023-07-22T10:14:01;21.00;99.90
44069;DHT22;29738;51.234;5.484;2023-07-22T10:16:26;21.20;99.90
44069;DHT22;29738;51.234;5.484;2023-07-22T10:18:53;21.60;99.90
44069;DHT22;29738;51.234;5.484;2023-07-22T10:21:19;21.50;99.90
44069;DHT22;29738;51.234;5.484;2023-07-22T10:23:46;21.40;99.90
44069;DHT22;29738;51.234;5.484;2023-07-22T10:26:14;21.60;99.90
44069;DHT22;29738;51.234;5.484;2023-07-22T10:28:40;21.80;99.90
44069;DHT22;29738;51.234;5.484;2023-07-22T12:02:23;23.20;99.90
44069;DHT22;29738;51.234;5.484;2023-07-22T12:04:56;23.30;99.90
44069;DHT22;29738;51.234;5.484;2023-07-22T12:07:32;23.20;99.90
44069;DHT22;29738;51.234;5.484;2023-07-22T12:09:59;23.20;99.90
44069;DHT22;29738;51.234;5.484;2023-07-22T12:12:35;23.50;99.90
44069;DHT22;29738;51.234;5.484;2023-07-22T12:15:02;23.70;99.90
44069;DHT22;29738;51.234;5.484;2023-07-22T12:17:29;23.80;99.90
44069;DHT22;29738;51.234;5.484;2023-07-22T12:19:55;23.90;99.90
44069;DHT22;29738;51.234;5.484;2023-07-22T12:22:20;23.80;99.90
44069;DHT22;29738;51.234;5.484;2023-07-22T12:24:47;23.70;99.90
44069;DHT22;29738;51.234;5.484;2023-07-22T12:27:13;23.70;99.90
44069;DHT22;29738;51.234;5.484;2023-07-22T12:29:38;23.60;99.90
44069;DHT22;29738;51.234;5.484;2023-07-22T12:32:04;23.90;99.90
44069;DHT22;29738;51.234;5.484;2023-07-22T12:34:31;24.00;99.90
44069;DHT22;29738;51.234;5.484;2023-07-22T12:36:56;24.20;99.90
44069;DHT22;29738;51.234;5.484;2023-07-22T12:39:23;24.30;99.90
44069;DHT22;29738;51.234;5.484;2023-07-22T12:41:49;24.00;99.90
44069;DHT22;29738;51.234;5.484;2023-07-22T12:44:15;23.80;99.90
44069;DHT22;29738;51.234;5.484;2023-07-22T12:46:41;24.00;99.90
44069;DHT22;29738;51.234;5.484;2023-07-22T12:49:09;24.00;99.90
44069;DHT22;29738;51.234;5.484;2023-07-22T12:51:34;23.90;99.90
44069;DHT22;29738;51.234;5.484;2023-07-22T12:54:00;23.70;99.90
44069;DHT22;29738;51.234;5.484;2023-07-22T12:56:25;24.00;99.90
44069;DHT22;29738;51.234;5.484;2023-07-22T12:58:51;23.70;99.90
44069;DHT22;29738;51.234;5.484;2023-07-22T13:01:17;24.00;99.90
44069;DHT22;29738;51.234;5.484;2023-07-22T13:03:42;24.20;99.90
44069;DHT22;29738;51.234;5.484;2023-07-22T13:06:08;24.00;99.90
44069;DHT22;29738;51.234;5.484;2023-07-22T13:08:34;24.10;99.90
44069;DHT22;29738;51.234;5.484;2023-07-22T13:11:00;23.70;99.90
44069;DHT22;29738;51.234;5.484;2023-07-22T13:13:27;23.40;99.90
44069;DHT22;29738;51.234;5.484;2023-07-22T13:15:52;23.50;99.90
44069;DHT22;29738;51.234;5.484;2023-07-22T13:18:18;23.70;99.90
44069;DHT22;29738;51.234;5.484;2023-07-22T13:20:44;23.70;99.90
44069;DHT22;29738;51.234;5.484;2023-07-22T13:23:09;23.90;99.90
44069;DHT22;29738;51.234;5.484;2023-07-22T13:25:35;23.90;99.90
44069;DHT22;29738;51.234;5.484;2023-07-22T13:28:01;24.00;99.90
44069;DHT22;29738;51.234;5.484;2023-07-22T13:30:27;24.00;99.90
44069;DHT22;29738;51.234;5.484;2023-07-22T13:32:52;23.90;99.90
44069;DHT22;29738;51.234;5.484;2023-07-22T13:35:18;23.70;99.90
44069;DHT22;29738;51.234;5.484;2023-07-22T13:37:44;24.00;99.90
44069;DHT22;29738;51.234;5.484;2023-07-22T13:40:09;24.10;99.90
44069;DHT22;29738;51.234;5.484;2023-07-22T13:42:36;23.80;99.90
44069;DHT22;29738;51.234;5.484;2023-07-22T13:45:02;23.80;99.90
44069;DHT22;29738;51.234;5.484;2023-07-22T13:47:27;23.70;99.90
44069;DHT22;29738;51.234;5.484;2023-07-22T13:49:53;23.80;99.90
44069;DHT22;29738;51.234;5.484;2023-07-22T13:52:19;23.90;99.70
44069;DHT22;29738;51.234;5.484;2023-07-22T13:54:44;23.60;99.70
44069;DHT22;29738;51.234;5.484;2023-07-22T13:57:11;23.60;99.90
44069;DHT22;29738;51.234;5.484;2023-07-22T13:59:37;23.80;99.90
44069;DHT22;29738;51.234;5.484;2023-07-22T14:02:03;24.00;99.90
44069;DHT22;29738;51.234;5.484;2023-07-22T14:04:31;24.00;99.80
44069;DHT22;29738;51.234;5.484;2023-07-22T14:06:57;23.80;99.90
44069;DHT22;29738;51.234;5.484;2023-07-22T14:09:23;23.70;99.90
44069;DHT22;29738;51.234;5.484;2023-07-22T14:11:48;23.90;99.90
44069;DHT22;29738;51.234;5.484;2023-07-22T14:14:14;23.90;99.70
44069;DHT22;29738;51.234;5.484;2023-07-22T14:16:42;24.00;99.30
44069;DHT22;29738;51.234;5.484;2023-07-22T14:19:07;24.10;98.80
44069;DHT22;29738;51.234;5.484;2023-07-22T14:21:33;24.10;99.30
44069;DHT22;29738;51.234;5.484;2023-07-22T14:23:58;24.10;99.10
44069;DHT22;29738;51.234;5.484;2023-07-22T14:26:24;24.20;98.30
44069;DHT22;29738;51.234;5.484;2023-07-22T14:28:49;24.00;99.10
44069;DHT22;29738;51.234;5.484;2023-07-22T14:31:16;23.80;99.10
44069;DHT22;29738;51.234;5.484;2023-07-22T14:33:41;23.60;99.90
44069;DHT22;29738;51.234;5.484;2023-07-22T14:36:07;23.90;99.20
44069;DHT22;29738;51.234;5.484;2023-07-22T14:38:33;23.60;99.40
44069;DHT22;29738;51.234;5.484;2023-07-22T14:40:58;23.50;99.60
44069;DHT22;29738;51.234;5.484;2023-07-22T14:43:24;23.50;99.90
44069;DHT22;29738;51.234;5.484;2023-07-22T14:45:49;23.50;99.30
44069;DHT22;29738;51.234;5.484;2023-07-22T14:48:15;23.40;98.40
44069;DHT22;29738;51.234;5.484;2023-07-22T14:50:41;23.20;99.10
44069;DHT22;29738;51.234;5.484;2023-07-22T14:53:07;23.30;99.00
44069;DHT22;29738;51.234;5.484;2023-07-22T14:55:32;23.60;99.60
44069;DHT22;29738;51.234;5.484;2023-07-22T14:57:58;23.70;99.00
44069;DHT22;29738;51.234;5.484;2023-07-22T15:00:24;23.50;99.50
44069;DHT22;29738;51.234;5.484;2023-07-22T15:02:49;23.40;98.60
44069;DHT22;29738;51.234;5.484;2023-07-22T15:05:15;23.40;98.70
44069;DHT22;29738;51.234;5.484;2023-07-22T15:07:41;23.30;99.00
44069;DHT22;29738;51.234;5.484;2023-07-22T15:10:06;23.70;99.20
44069;DHT22;29738;51.234;5.484;2023-07-22T15:12:32;23.80;97.70
44069;DHT22;29738;51.234;5.484;2023-07-22T15:14:58;23.80;98.20
44069;DHT22;29738;51.234;5.484;2023-07-22T15:17:26;23.30;98.30
44069;DHT22;29738;51.234;5.484;2023-07-22T15:43:50;22.50;98.80
44069;DHT22;29738;51.234;5.484;2023-07-22T15:46:16;22.30;99.80
44069;DHT22;29738;51.234;5.484;2023-07-22T15:48:41;22.40;99.50
44069;DHT22;29738;51.234;5.484;2023-07-22T15:51:07;22.30;99.40
44069;DHT22;29738;51.234;5.484;2023-07-22T15:53:33;22.30;99.30
44069;DHT22;29738;51.234;5.484;2023-07-22T15:55:58;22.20;99.90
44069;DHT22;29738;51.234;5.484;2023-07-22T15:58:24;22.20;99.90
44069;DHT22;29738;51.234;5.484;2023-07-22T16:00:50;22.10;99.90
44069;DHT22;29738;51.234;5.484;2023-07-22T16:03:16;22.00;99.90
44069;DHT22;29738;51.234;5.484;2023-07-22T16:05:42;21.90;99.90
44069;DHT22;29738;51.234;5.484;2023-07-22T16:08:08;21.80;99.90
44069;DHT22;29738;51.234;5.484;2023-07-22T16:10:38;21.70;99.90
44069;DHT22;29738;51.234;5.484;2023-07-22T17:14:24;21.40;99.90
44069;DHT22;29738;51.234;5.484;2023-07-22T17:16:50;21.50;99.90
44069;DHT22;29738;51.234;5.484;2023-07-22T17:19:15;21.40;99.90
44069;DHT22;29738;51.234;5.484;2023-07-22T17:21:41;21.50;99.90
44069;DHT22;29738;51.234;5.484;2023-07-22T17:24:07;21.30;99.90
44069;DHT22;29738;51.234;5.484;2023-07-22T17:26:32;21.20;99.90
44069;DHT22;29738;51.234;5.484;2023-07-22T17:28:58;21.20;99.90
44069;DHT22;29738;51.234;5.484;2023-07-22T17:31:24;21.30;99.90
44069;DHT22;29738;51.234;5.484;2023-07-22T17:33:49;21.30;99.90
44069;DHT22;29738;51.234;5.484;2023-07-22T17:36:15;21.20;99.90
44069;DHT22;29738;51.234;5.484;2023-07-22T17:38:40;21.40;99.90
44069;DHT22;29738;51.234;5.484;2023-07-22T17:41:06;21.40;99.90
44069;DHT22;29738;51.234;5.484;2023-07-22T17:43:31;21.40;99.90
44069;DHT22;29738;51.234;5.484;2023-07-22T17:45:57;21.10;99.90
44069;DHT22;29738;51.234;5.484;2023-07-22T17:48:23;21.00;99.90
44069;DHT22;29738;51.234;5.484;2023-07-22T17:50:48;21.10;99.90
44069;DHT22;29738;51.234;5.484;2023-07-22T17:53:14;21.00;99.90
44069;DHT22;29738;51.234;5.484;2023-07-22T17:55:40;21.00;99.90
44069;DHT22;29738;51.234;5.484;2023-07-22T17:58:06;20.90;99.90
44069;DHT22;29738;51.234;5.484;2023-07-22T18:00:32;21.00;99.90
44069;DHT22;29738;51.234;5.484;2023-07-22T18:02:57;21.10;99.90
44069;DHT22;29738;51.234;5.484;2023-07-22T18:05:23;21.20;99.90
44069;DHT22;29738;51.234;5.484;2023-07-22T18:07:51;21.10;99.90
44069;DHT22;29738;51.234;5.484;2023-07-22T18:10:17;21.00;99.90
44069;DHT22;29738;51.234;5.484;2023-07-22T18:12:43;21.10;99.90
44069;DHT22;29738;51.234;5.484;2023-07-22T18:15:08;21.10;99.90
44069;DHT22;29738;51.234;5.484;2023-07-22T18:17:34;21.20;99.90
44069;DHT22;29738;51.234;5.484;2023-07-22T18:20:00;21.30;99.90
44069;DHT22;29738;51.234;5.484;2023-07-22T18:22:25;21.40;99.90
44069;DHT22;29738;51.234;5.484;2023-07-22T18:24:52;21.60;99.90
44069;DHT22;29738;51.234;5.484;2023-07-22T18:27:18;21.40;99.90
44069;DHT22;29738;51.234;5.484;2023-07-22T18:29:44;21.20;99.90
44069;DHT22;29738;51.234;5.484;2023-07-22T18:32:12;21.20;99.90
44069;DHT22;29738;51.234;5.484;2023-07-22T18:34:38;21.30;99.90
44069;DHT22;29738;51.234;5.484;2023-07-22T18:37:03;21.30;99.90
44069;DHT22;29738;51.234;5.484;2023-07-22T18:39:29;21.60;99.90
44069;DHT22;29738;51.234;5.484;2023-07-22T18:41:55;21.70;99.90
44069;DHT22;29738;51.234;5.484;2023-07-22T18:44:20;21.80;99.90
44069;DHT22;29738;51.234;5.484;2023-07-22T18:46:46;21.60;99.90
44069;DHT22;29738;51.234;5.484;2023-07-22T18:49:18;21.70;99.90
44069;DHT22;29738;51.234;5.484;2023-07-22T19:57:59;19.60;99.90
44069;DHT22;29738;51.234;5.484;2023-07-22T20:00:25;19.60;99.90
44069;DHT22;29738;51.234;5.484;2023-07-22T20:02:51;19.60;99.90
44069;DHT22;29738;51.234;5.484;2023-07-22T20:05:16;19.50;99.90
44069;DHT22;29738;51.234;5.484;2023-07-22T20:07:42;19.60;99.90
44069;DHT22;29738;51.234;5.484;2023-07-22T20:10:07;19.50;99.90
44069;DHT22;29738;51.234;5.484;2023-07-22T20:12:33;19.40;99.90
44069;DHT22;29738;51.234;5.484;2023-07-22T20:14:59;19.30;99.90
44069;DHT22;29738;51.234;5.484;2023-07-22T20:17:24;19.30;99.90
44069;DHT22;29738;51.234;5.484;2023-07-22T20:19:50;19.30;99.90
44069;DHT22;29738;51.234;5.484;2023-07-22T20:22:15;19.40;99.90
44069;DHT22;29738;51.234;5.484;2023-07-22T20:24:44;19.20;99.90
44069;DHT22;29738;51.234;5.484;2023-07-22T20:27:10;19.30;99.90
44069;DHT22;29738;51.234;5.484;2023-07-22T20:29:35;19.30;99.90
44069;DHT22;29738;51.234;5.484;2023-07-22T20:32:01;19.30;99.90
44069;DHT22;29738;51.234;5.484;2023-07-22T20:34:26;19.30;99.90
44069;DHT22;29738;51.234;5.484;2023-07-22T20:36:52;19.30;99.90
44069;DHT22;29738;51.234;5.484;2023-07-22T20:39:18;19.30;99.90
44069;DHT22;29738;51.234;5.484;2023-07-22T20:41:45;19.40;99.90
44069;DHT22;29738;51.234;5.484;2023-07-22T20:44:11;19.40;99.90
44069;DHT22;29738;51.234;5.484;2023-07-22T20:46:36;19.40;99.90
44069;DHT22;29738;51.234;5.484;2023-07-22T20:49:02;19.30;99.90
44069;DHT22;29738;51.234;5.484;2023-07-22T20:51:27;19.40;99.90
44069;DHT22;29738;51.234;5.484;2023-07-22T20:53:53;19.30;99.90
44069;DHT22;29738;51.234;5.484;2023-07-22T20:56:18;19.40;99.90
44069;DHT22;29738;51.234;5.484;2023-07-22T20:58:44;19.40;99.90
44069;DHT22;29738;51.234;5.484;2023-07-22T21:01:10;19.40;99.90
44069;DHT22;29738;51.234;5.484;2023-07-22T21:03:36;19.40;99.90
44069;DHT22;29738;51.234;5.484;2023-07-22T21:06:01;19.40;99.90
44069;DHT22;29738;51.234;5.484;2023-07-22T21:08:27;19.30;99.90
44069;DHT22;29738;51.234;5.484;2023-07-22T23:09:28;17.90;99.90
44069;DHT22;29738;51.234;5.484;2023-07-22T23:11:54;17.90;99.90
44069;DHT22;29738;51.234;5.484;2023-07-22T23:14:23;17.70;99.90
44069;DHT22;29738;51.234;5.484;2023-07-22T23:16:48;17.60;99.90
